CHTM7: Spring River at Carthage, MO

                                SHEF ID:       CHTM7     Spring River at Carthage, MO
STATION TYPE:

PRECIP STAGE RIV-FLOW
in ft cfs
Ccp-Rev Ccp-Rev Ccp-Rev
(America/Chicago)
04/30 00:00 0.00 4.65 1048
04/30 01:00 0.00 4.62 1026
04/30 02:00 0.00 4.61 1019
04/30 03:00 0.00 4.59 1005
04/30 04:00 0.00 4.57 990
04/30 05:00 0.00 4.57 990
04/30 06:00 0.00 4.55 976
04/30 07:00 0.00 4.53 961
04/30 08:00 0.00 4.51 947
04/30 09:00 0.00 4.50 940
04/30 10:00 0.00 4.49 933
04/30 11:00 0.00 4.48 925
04/30 12:00 0.00 4.46 911
04/30 13:00 0.00 4.46 911
04/30 14:00 0.00 4.45 903
04/30 15:00 0.00 4.44 896
04/30 16:00 0.00 4.43 889
04/30 17:00 0.00 4.42 882
04/30 18:00 0.00 4.41 875
04/30 19:00 0.00 4.40 868
04/30 20:00 0.00 4.39 861
04/30 21:00 0.00 4.39 861
04/30 22:00 0.00 4.38 853
04/30 23:00 0.00 4.37 846
Data processed at Fri 01May2026 04:52 GMT

NOTICE: If you are parsing this page

Please convert to using our Data API. Starting early 2026 we will be migrating to: https://water.usace.army.mil with modern pages rendered in JavaScript. When this migration completes you will no longer be able to scrape this page! CWMSDataAPI (CDA)

Timeseries IDs (TSIDs)

TSIDs used from left to right in the data table
CART.Precip-Inc.Total.1Hour.1Hour.Ccp-Rev
CART.Stage.Inst.1Hour.0.Ccp-Rev
CART.Flow.Inst.1Hour.0.Ccp-Rev

                            

All information presented herein is the property of the government of the United States of America and may be revised or deleted at any time without prior notice. Dissemination of this information without the expressed written consent of the Public Affairs Office, Tulsa District U.S. Army Corps of Engineers is strictly prohibited. These data are gathered electronically and, as presented, have NOT undergone any form of quality control. These data are NOT guaranteed to be valid or correct.